Time;durP1;ratioP1;P1;durP2;ratioP2;P2;SDS_P1;SDS_P2;PMS_P1;PMS_P2;Temp;Humidity;BMP_temperature;BMP_pressure;BME280_temperature;BME280_humidity;BME280_pressure;Samples;Min_cycle;Max_cycle;Signal;HPM_P1;HPM_P2
2022/11/02 00:00:44;;;;;;;7.40;1.52;;;;;;;12.85;94.45;101270.91;4958560;28;20636;-65
2022/11/02 00:03:09;;;;;;;7.32;1.48;;;;;;;12.88;95.11;101265.78;4978546;28;20066;-65
2022/11/02 00:05:35;;;;;;;4.93;1.63;;;;;;;12.88;94.93;101264.94;4970116;28;20022;-65
2022/11/02 00:08:00;;;;;;;9.00;1.90;;;;;;;12.91;94.85;101268.50;4973542;28;20502;-65
2022/11/02 00:10:26;;;;;;;4.85;1.55;;;;;;;12.91;95.13;101270.22;4978178;28;20028;-65
2022/11/02 00:12:51;;;;;;;7.05;1.65;;;;;;;12.90;94.48;101271.91;4976162;28;20479;-65
2022/11/02 00:15:18;;;;;;;7.53;1.70;;;;;;;12.93;94.57;101269.41;4969911;28;20029;-65
2022/11/02 00:17:49;;;;;;;7.05;1.65;;;;;;;12.94;94.38;101259.88;4956046;28;20035;-65
2022/11/02 00:20:18;;;;;;;8.48;1.63;;;;;;;13.01;93.32;101266.13;4970093;28;20360;-65
2022/11/02 00:22:46;;;;;;;6.30;1.58;;;;;;;13.03;93.23;101267.06;4968732;28;20042;-65
2022/11/02 00:25:16;;;;;;;5.53;1.77;;;;;;;13.06;92.60;101268.03;4969660;28;20033;-65
2022/11/02 00:27:42;;;;;;;9.80;1.98;;;;;;;13.08;92.40;101260.28;4969664;28;20066;-66
2022/11/02 00:30:08;;;;;;;10.50;1.60;;;;;;;13.07;92.90;101266.31;4970168;28;20061;-65
2022/11/02 00:32:33;;;;;;;8.23;1.55;;;;;;;13.07;92.32;101261.13;4970320;28;20099;-65
2022/11/02 00:34:59;;;;;;;5.65;1.17;;;;;;;13.12;91.95;101280.34;4982948;28;20027;-65
2022/11/02 00:37:24;;;;;;;6.22;1.60;;;;;;;13.13;91.52;101278.63;4969676;28;20022;-65
2022/11/02 00:39:49;;;;;;;7.22;1.70;;;;;;;13.15;91.48;101274.38;4956104;28;20030;-65
2022/11/02 00:42:15;;;;;;;7.25;1.27;;;;;;;13.16;91.25;101256.19;4969289;28;20022;-65
2022/11/02 00:44:40;;;;;;;5.32;1.23;;;;;;;13.21;90.43;101270.22;4970196;28;20506;-65
2022/11/02 00:47:06;;;;;;;7.78;1.30;;;;;;;13.21;90.38;101277.13;4962582;28;20069;-67
2022/11/02 00:49:31;;;;;;;4.97;1.13;;;;;;;13.21;90.43;101291.03;4961596;28;20034;-65
2022/11/02 00:51:56;;;;;;;7.70;1.42;;;;;;;13.21;89.47;101285.81;4955383;28;20019;-65
2022/11/02 00:54:22;;;;;;;4.15;1.15;;;;;;;13.18;89.01;101279.66;4967412;28;20113;-66
2022/11/02 00:56:48;;;;;;;5.82;1.17;;;;;;;13.16;88.58;101287.41;4957994;28;20113;-65
2022/11/02 00:59:14;;;;;;;5.60;1.35;;;;;;;13.12;88.01;101274.25;4982513;28;20022;-65
2022/11/02 01:01:39;;;;;;;4.03;1.10;;;;;;;13.10;88.29;101287.22;4969568;28;20053;-65
2022/11/02 01:04:05;;;;;;;15.15;1.58;;;;;;;13.05;88.71;101288.81;4969353;28;20137;-65
2022/11/02 01:06:30;;;;;;;5.35;1.23;;;;;;;13.02;88.91;101293.94;4967861;28;20114;-65
2022/11/02 01:08:55;;;;;;;8.38;1.50;;;;;;;12.99;89.53;101292.09;4968792;28;20113;-65
2022/11/02 01:11:22;;;;;;;4.22;1.30;;;;;;;12.95;90.27;101298.94;4955511;28;20493;-65
2022/11/02 01:13:51;;;;;;;4.97;1.00;;;;;;;12.90;90.96;101308.31;4969511;28;20065;-66
2022/11/02 01:16:16;;;;;;;4.82;1.42;;;;;;;12.87;91.60;101316.03;4972449;28;20029;-65
2022/11/02 01:18:42;;;;;;;5.00;1.00;;;;;;;12.85;91.75;101315.13;4978176;28;20096;-65
2022/11/02 01:21:08;;;;;;;3.85;1.13;;;;;;;12.81;90.33;101318.44;4981975;28;20052;-66
2022/11/02 01:23:35;;;;;;;4.65;1.27;;;;;;;12.81;89.50;101310.66;4977123;28;20022;-65
2022/11/02 01:26:07;;;;;;;8.05;1.17;;;;;;;12.75;89.56;101310.47;4960876;28;20065;-65
2022/11/02 01:28:32;;;;;;;5.45;1.95;;;;;;;12.70;88.69;101319.00;4968589;28;20027;-65
2022/11/02 01:30:58;;;;;;;4.30;1.15;;;;;;;12.66;87.59;101317.16;4961996;28;20032;-65
2022/11/02 01:33:24;;;;;;;6.43;1.27;;;;;;;12.62;87.75;101320.50;4981888;28;20054;-65
2022/11/02 01:35:50;;;;;;;3.15;1.00;;;;;;;12.60;86.71;101319.56;4979054;28;20031;-65
2022/11/02 01:38:15;;;;;;;7.82;1.88;;;;;;;12.58;87.19;101309.13;4965198;28;20073;-65
2022/11/02 01:40:41;;;;;;;5.60;1.50;;;;;;;12.54;86.80;101325.44;4968828;28;20038;-65
2022/11/02 01:43:22;;;;;;;5.20;0.93;;;;;;;12.50;86.86;101321.00;4954987;28;20443;-65
2022/11/02 01:45:54;;;;;;;3.78;1.05;;;;;;;12.47;87.38;101313.97;4968062;28;20105;-65
2022/11/02 01:48:27;;;;;;;7.28;1.52;;;;;;;12.45;87.07;101322.53;4952769;28;20101;-65
2022/11/02 01:50:52;;;;;;;4.38;1.42;;;;;;;12.41;87.43;101326.75;4957405;28;20038;-65
2022/11/02 01:53:17;;;;;;;8.85;1.42;;;;;;;12.39;87.52;101335.38;4980069;28;20026;-65
2022/11/02 01:55:43;;;;;;;3.88;1.10;;;;;;;12.33;87.62;101344.72;4948058;28;20039;-65
2022/11/02 01:58:11;;;;;;;6.32;1.20;;;;;;;12.31;87.20;101335.09;4956807;28;20019;-65
2022/11/02 02:00:37;;;;;;;4.30;0.95;;;;;;;12.28;87.48;101335.00;4949643;28;20459;-65
2022/11/02 02:03:11;;;;;;;7.45;1.50;;;;;;;12.27;88.03;101331.53;4956375;28;20035;-65
2022/11/02 02:05:43;;;;;;;4.03;1.00;;;;;;;12.25;88.19;101336.66;4976326;28;20202;-65
2022/11/02 02:08:11;;;;;;;4.50;1.10;;;;;;;12.28;88.71;101345.41;4958011;28;20030;-66
2022/11/02 02:10:37;;;;;;;4.00;1.33;;;;;;;12.27;88.39;101341.06;4954767;28;20440;-65
2022/11/02 02:13:04;;;;;;;3.10;0.98;;;;;;;12.26;89.31;101340.16;4970349;28;20046;-65
2022/11/02 02:15:39;;;;;;;4.63;1.13;;;;;;;12.24;89.04;101347.00;4955802;28;20440;-65
2022/11/02 02:18:41;;;;;;;5.03;1.23;;;;;;;12.21;89.74;101334.81;4950366;28;20026;-65
2022/11/02 02:21:34;;;;;;;7.57;1.67;;;;;;;12.20;89.71;101338.22;4957497;28;20037;-65
2022/11/02 02:24:14;;;;;;;5.90;1.00;;;;;;;12.13;90.61;101331.97;4959304;28;20038;-65
2022/11/02 02:27:02;;;;;;;6.38;1.58;;;;;;;12.09;90.38;101340.47;4955576;28;20491;-65
2022/11/02 02:30:00;;;;;;;4.80;0.88;;;;;;;12.04;91.39;101347.19;4970047;28;20535;-65
2022/11/02 02:32:48;;;;;;;4.57;1.50;;;;;;;12.03;91.32;101349.75;4963606;28;20027;-65
2022/11/02 02:35:16;;;;;;;9.50;1.65;;;;;;;12.00;91.56;101346.19;4963146;28;20025;-65
2022/11/02 02:37:54;;;;;;;6.95;1.30;;;;;;;11.96;92.31;101328.75;4961237;28;20039;-65
2022/11/02 02:40:40;;;;;;;5.78;1.70;;;;;;;11.94;92.32;101340.81;4955928;28;20022;-65
2022/11/02 02:43:12;;;;;;;6.38;1.83;;;;;;;11.88;93.00;101343.19;4954293;28;20032;-65
2022/11/02 02:45:48;;;;;;;6.60;1.50;;;;;;;11.85;93.03;101354.38;4967925;28;20069;-66
2022/11/02 02:48:23;;;;;;;6.68;1.73;;;;;;;11.85;93.70;101350.88;4965368;28;20030;-65
2022/11/02 02:50:50;;;;;;;3.50;1.10;;;;;;;11.83;93.52;101348.22;4957944;28;20031;-65
2022/11/02 02:53:23;;;;;;;6.53;1.42;;;;;;;11.80;94.26;101350.69;4968981;28;20099;-65
2022/11/02 02:55:50;;;;;;;6.32;1.63;;;;;;;11.74;94.28;101364.38;4978653;28;20038;-65
2022/11/02 02:58:26;;;;;;;5.93;1.67;;;;;;;11.74;93.93;101353.09;4967320;28;20027;-65
2022/11/02 03:00:53;;;;;;;13.80;2.08;;;;;;;11.75;93.95;101360.03;4967663;28;20050;-65
2022/11/02 03:03:23;;;;;;;5.60;1.33;;;;;;;11.72;93.00;101360.84;4953901;28;20311;-65
2022/11/02 03:06:01;;;;;;;7.72;1.75;;;;;;;11.72;93.58;101355.63;4961394;28;20039;-65
2022/11/02 03:08:27;;;;;;;8.90;1.85;;;;;;;11.70;93.49;101357.28;4962467;28;20033;-65
2022/11/02 03:11:04;;;;;;;11.07;2.00;;;;;;;11.71;93.04;101356.44;4973704;28;20042;-65
2022/11/02 03:13:41;;;;;;;6.40;1.58;;;;;;;11.69;92.34;101355.53;4971010;28;20466;-65
2022/11/02 03:16:12;;;;;;;8.02;1.55;;;;;;;11.69;93.01;101363.31;4964382;28;20042;-65
2022/11/02 03:18:51;;;;;;;8.40;1.73;;;;;;;11.70;92.04;101365.09;4957459;28;20027;-65
2022/11/02 03:21:33;;;;;;;10.32;2.03;;;;;;;11.69;92.43;101368.53;4967613;28;20033;-65
2022/11/02 03:24:15;;;;;;;6.90;1.65;;;;;;;11.66;92.63;101360.59;4966956;28;20058;-65
2022/11/02 03:26:57;;;;;;;8.85;1.52;;;;;;;11.65;92.42;101371.81;4954174;28;20090;-65
2022/11/02 03:29:38;;;;;;;6.78;1.75;;;;;;;11.65;92.11;101382.22;4968253;28;20540;-67
2022/11/02 03:32:12;;;;;;;9.00;1.83;;;;;;;11.67;91.61;101384.84;4971487;28;20041;-66
2022/11/02 03:34:47;;;;;;;9.05;1.77;;;;;;;11.68;92.17;101391.81;4969879;28;20037;-66
2022/11/02 03:37:30;;;;;;;7.88;1.58;;;;;;;11.65;91.42;101382.22;4962434;28;20023;-66
2022/11/02 03:40:27;;;;;;;11.82;1.67;;;;;;;11.69;91.49;101385.81;4966657;28;20861;-66
2022/11/02 03:42:55;;;;;;;9.75;2.20;;;;;;;11.68;91.68;101389.19;4970448;28;20069;-68
2022/11/02 03:45:25;;;;;;;7.25;1.73;;;;;;;11.67;91.31;101383.16;4954795;28;20054;-66
2022/11/02 03:47:56;;;;;;;10.55;2.05;;;;;;;11.67;92.11;101383.16;4951376;28;20054;-66
2022/11/02 03:50:23;;;;;;;7.03;1.70;;;;;;;11.70;91.58;101387.56;4968148;28;20512;-66
2022/11/02 03:52:55;;;;;;;5.60;1.73;;;;;;;11.68;91.30;101395.28;4959398;28;20668;-66
2022/11/02 03:55:28;;;;;;;7.70;1.27;;;;;;;11.68;91.97;101405.66;4963353;28;20027;-66
2022/11/02 03:57:54;;;;;;;7.13;2.42;;;;;;;11.66;92.21;101402.13;4952006;28;20117;-66
2022/11/02 04:00:22;;;;;;;9.45;1.75;;;;;;;11.65;91.80;101405.56;4970894;28;20054;-66
2022/11/02 04:02:52;;;;;;;8.70;2.10;;;;;;;11.63;92.32;101405.53;4983614;28;20057;-66
2022/11/02 04:05:17;;;;;;;10.23;2.17;;;;;;;11.62;92.31;101410.66;4955159;28;20161;-66
2022/11/02 04:10:31;;;;;;;10.35;1.90;;;;;;;11.59;93.58;101413.13;4970975;28;20058;-66
2022/11/02 04:15:41;;;;;;;9.02;2.55;;;;;;;11.56;94.92;101428.59;4970362;28;20037;-66
2022/11/02 04:20:50;;;;;;;6.38;1.95;;;;;;;11.52;95.50;101433.66;4962894;28;20618;-66
2022/11/02 04:26:00;;;;;;;10.07;1.70;;;;;;;11.47;95.41;101443.00;4958495;28;20040;-66
2022/11/02 04:28:26;;;;;;;7.30;2.20;;;;;;;11.45;95.23;101444.63;4970458;28;20019;-66
2022/11/02 04:30:51;;;;;;;9.60;1.98;;;;;;;11.45;95.52;101444.63;4988715;28;20120;-66
2022/11/02 04:33:31;;;;;;;10.20;2.22;;;;;;;11.46;95.15;101441.22;4978162;28;20121;-66
2022/11/02 04:36:05;;;;;;;7.30;1.90;;;;;;;11.44;95.64;101448.03;4961887;28;20482;-66
2022/11/02 04:38:40;;;;;;;7.60;1.70;;;;;;;11.45;95.42;101455.03;4975953;28;20835;-65
2022/11/02 04:43:52;;;;;;;9.80;2.40;;;;;;;11.41;96.63;101464.41;4969741;28;20526;-65
2022/11/02 04:46:18;;;;;;;9.10;1.90;;;;;;;11.39;95.96;101484.22;4969205;28;20023;-65
2022/11/02 04:48:43;;;;;;;15.15;2.22;;;;;;;11.38;96.51;101485.06;4957599;28;20085;-65
2022/11/02 04:51:08;;;;;;;11.57;2.47;;;;;;;11.38;95.84;101487.66;4968434;28;20505;-64
2022/11/02 04:53:34;;;;;;;9.15;1.92;;;;;;;11.38;95.90;101497.13;4969598;28;20035;-64
2022/11/02 04:55:59;;;;;;;11.02;1.45;;;;;;;11.35;96.19;101491.84;4956482;28;20563;-64
2022/11/02 04:58:25;;;;;;;7.10;1.92;;;;;;;11.32;96.55;101477.00;4966550;28;20494;-64
2022/11/02 05:00:50;;;;;;;9.10;2.13;;;;;;;11.33;95.41;101493.47;4974165;28;20537;-64
2022/11/02 05:03:15;;;;;;;11.63;2.50;;;;;;;11.33;95.80;101501.25;4972671;28;20402;-64
2022/11/02 05:05:40;;;;;;;5.70;2.13;;;;;;;11.31;95.81;101501.19;4967316;28;20031;-64
2022/11/02 05:08:06;;;;;;;11.23;2.15;;;;;;;11.31;96.78;101505.50;4975014;28;20451;-64
2022/11/02 05:10:31;;;;;;;14.50;1.90;;;;;;;11.31;96.46;101508.09;4970057;28;20057;-64
2022/11/02 05:12:57;;;;;;;10.05;1.80;;;;;;;11.31;96.22;101518.47;4975749;28;20073;-64
2022/11/02 05:15:23;;;;;;;10.15;2.33;;;;;;;11.31;96.91;101513.28;4973054;28;20038;-64
2022/11/02 05:17:48;;;;;;;6.70;1.85;;;;;;;11.31;96.34;101523.66;4973861;28;20037;-64
2022/11/02 05:20:13;;;;;;;7.15;1.58;;;;;;;11.32;96.63;101535.78;4970009;28;20027;-64
2022/11/02 05:22:42;;;;;;;8.18;2.35;;;;;;;11.31;95.80;101524.56;4971914;28;20039;-64
2022/11/02 05:25:09;;;;;;;10.68;1.65;;;;;;;11.33;95.87;101537.59;4971773;28;20106;-65
2022/11/02 05:27:34;;;;;;;11.85;2.38;;;;;;;11.31;95.54;101534.03;4968376;28;20030;-64
2022/11/02 05:29:59;;;;;;;7.63;2.10;;;;;;;11.29;94.30;101542.66;4974786;28;20386;-65
2022/11/02 05:32:26;;;;;;;8.38;1.85;;;;;;;11.28;94.86;101546.06;4962532;28;20026;-64
2022/11/02 05:34:51;;;;;;;7.70;1.60;;;;;;;11.27;95.50;101553.78;4986966;28;20485;-64
2022/11/02 05:37:16;;;;;;;7.90;1.88;;;;;;;11.23;95.25;101563.16;4977307;28;20023;-65
2022/11/02 05:39:41;;;;;;;12.85;2.08;;;;;;;11.21;95.49;101559.59;4968995;28;20398;-65
2022/11/02 05:42:07;;;;;;;8.23;1.90;;;;;;;11.20;95.19;101564.72;4955559;28;20061;-65
2022/11/02 05:44:32;;;;;;;10.50;2.42;;;;;;;11.17;94.90;101570.69;4951134;28;20086;-65
2022/11/02 05:46:57;;;;;;;11.38;2.17;;;;;;;11.16;94.75;101572.41;4954849;28;20122;-65
2022/11/02 05:49:23;;;;;;;9.88;2.00;;;;;;;11.18;95.79;101580.25;4961436;28;20038;-65
2022/11/02 05:51:48;;;;;;;8.38;2.30;;;;;;;11.15;94.73;101580.13;4959485;28;20034;-64
2022/11/02 05:54:13;;;;;;;10.68;1.83;;;;;;;11.13;95.60;101584.34;4960786;28;20425;-65
2022/11/02 05:56:39;;;;;;;12.20;2.00;;;;;;;11.09;95.40;101592.81;4960369;28;20031;-65
2022/11/02 05:59:04;;;;;;;9.35;1.50;;;;;;;11.05;96.40;101590.09;4954828;28;20011;-65
2022/11/02 06:01:29;;;;;;;8.23;2.38;;;;;;;11.01;95.70;101580.41;4961424;28;20396;-65
2022/11/02 06:03:54;;;;;;;5.63;1.27;;;;;;;10.96;96.56;101594.88;4964666;28;20023;-65
2022/11/02 06:06:20;;;;;;;9.38;2.00;;;;;;;10.91;96.11;101599.00;4964982;28;20057;-64
2022/11/02 06:08:45;;;;;;;8.68;1.90;;;;;;;10.90;96.54;101610.22;4966647;28;20030;-64
2022/11/02 06:11:12;;;;;;;7.05;1.73;;;;;;;10.85;97.50;101607.41;4962446;28;20558;-65
2022/11/02 06:13:38;;;;;;;6.63;1.63;;;;;;;10.86;97.06;101608.28;4961620;28;20034;-65
2022/11/02 06:16:08;;;;;;;15.30;1.70;;;;;;;10.86;96.83;101614.38;4967039;28;20043;-65
2022/11/02 06:18:33;;;;;;;5.47;1.58;;;;;;;10.80;97.09;101615.00;4969964;28;20029;-65
2022/11/02 06:20:59;;;;;;;7.03;1.92;;;;;;;10.78;97.96;101621.81;4965499;28;20026;-65
2022/11/02 06:23:25;;;;;;;10.05;1.77;;;;;;;10.72;98.11;101624.13;4967099;28;20325;-64
2022/11/02 06:25:51;;;;;;;6.90;1.73;;;;;;;10.69;98.52;101642.13;4971300;28;20089;-64
2022/11/02 06:28:17;;;;;;;7.65;1.85;;;;;;;10.66;98.61;101642.00;4960003;28;20023;-65
2022/11/02 06:30:42;;;;;;;10.60;2.22;;;;;;;10.64;98.74;101648.81;4959867;28;20035;-65
2022/11/02 06:33:07;;;;;;;7.88;1.63;;;;;;;10.62;99.55;101651.34;4971912;28;20450;-64
2022/11/02 06:35:33;;;;;;;11.82;1.85;;;;;;;10.57;99.17;101652.84;4974713;28;20488;-65
2022/11/02 06:37:58;;;;;;;10.18;1.92;;;;;;;10.54;99.71;101666.53;4971339;28;20022;-64
2022/11/02 06:40:23;;;;;;;9.02;1.73;;;;;;;10.56;99.75;101672.69;4965248;28;20289;-65
2022/11/02 06:42:57;;;;;;;9.82;1.90;;;;;;;10.50;99.81;101677.59;4975693;28;20402;-64
2022/11/02 06:45:23;;;;;;;8.07;1.85;;;;;;;10.48;100.00;101679.22;4963252;28;20419;-64
2022/11/02 06:47:49;;;;;;;10.77;2.00;;;;;;;10.50;100.00;101692.25;4962481;28;20062;-64
2022/11/02 06:50:15;;;;;;;8.73;1.70;;;;;;;10.48;100.00;101702.56;4954046;28;20075;-64
2022/11/02 06:52:43;;;;;;;8.25;1.63;;;;;;;10.41;100.00;101709.13;4949322;28;20031;-65
2022/11/02 06:55:08;;;;;;;10.45;2.45;;;;;;;10.42;100.00;101717.78;4948981;28;20098;-65
2022/11/02 06:57:35;;;;;;;5.93;1.55;;;;;;;10.39;100.00;101726.31;4948226;28;20060;-64
2022/11/02 07:00:03;;;;;;;8.02;1.70;;;;;;;10.36;100.00;101725.28;4951500;28;20447;-64
2022/11/02 07:02:29;;;;;;;9.02;1.90;;;;;;;10.36;100.00;101736.50;4951281;28;20035;-64
2022/11/02 07:04:54;;;;;;;9.93;2.15;;;;;;;10.32;100.00;101738.09;4953328;28;20110;-64
2022/11/02 07:07:19;;;;;;;7.05;1.42;;;;;;;10.35;100.00;101739.03;4964024;28;20582;-64
2022/11/02 07:09:45;;;;;;;10.13;2.00;;;;;;;10.35;100.00;101751.97;4954639;28;20235;-65
2022/11/02 07:12:10;;;;;;;10.32;2.25;;;;;;;10.35;100.00;101744.22;4957545;28;20035;-64
2022/11/02 07:14:35;;;;;;;10.13;1.65;;;;;;;10.35;100.00;101764.94;4974131;28;20030;-64
2022/11/02 07:17:00;;;;;;;9.02;1.67;;;;;;;10.33;100.00;101763.16;4973782;28;20037;-64
2022/11/02 07:19:26;;;;;;;12.23;2.30;;;;;;;10.32;100.00;101776.06;4973117;28;20022;-64
2022/11/02 07:21:51;;;;;;;6.22;1.52;;;;;;;10.35;100.00;101794.34;4975156;28;20027;-64
2022/11/02 07:24:16;;;;;;;5.75;1.83;;;;;;;10.35;100.00;101798.63;4958925;28;20455;-65
2022/11/02 07:26:41;;;;;;;7.63;1.52;;;;;;;10.35;100.00;101789.16;4968775;28;20027;-64
2022/11/02 07:29:07;;;;;;;8.45;1.38;;;;;;;10.35;100.00;101798.63;4957837;28;20039;-65
2022/11/02 07:31:32;;;;;;;7.07;1.73;;;;;;;10.33;100.00;101799.44;4978204;28;20041;-64
2022/11/02 07:33:57;;;;;;;9.38;1.90;;;;;;;10.34;100.00;101810.72;4965255;28;20061;-64
2022/11/02 07:36:22;;;;;;;8.80;1.60;;;;;;;10.38;100.00;101791.88;4962891;28;20031;-64
2022/11/02 07:38:48;;;;;;;7.53;1.50;;;;;;;10.38;100.00;101812.59;4953937;28;20109;-64
2022/11/02 07:41:13;;;;;;;5.00;1.45;;;;;;;10.42;100.00;101805.88;4953448;28;20037;-64
2022/11/02 07:43:39;;;;;;;13.25;2.72;;;;;;;10.41;100.00;101817.06;4968558;28;20466;-64
2022/11/02 07:46:05;;;;;;;10.35;2.08;;;;;;;10.41;100.00;101814.47;4973962;28;20066;-64
2022/11/02 07:48:30;;;;;;;7.97;1.92;;;;;;;10.40;100.00;101820.44;4981668;28;20452;-65
2022/11/02 07:50:58;;;;;;;11.70;2.40;;;;;;;10.41;100.00;101822.25;4957262;28;20035;-66
2022/11/02 07:53:23;;;;;;;9.60;1.85;;;;;;;10.41;100.00;101827.44;4960768;28;20488;-65
2022/11/02 07:55:48;;;;;;;7.78;1.65;;;;;;;10.43;100.00;101824.06;4953589;28;20027;-65
2022/11/02 07:58:14;;;;;;;10.30;1.88;;;;;;;10.46;100.00;101831.13;4956881;28;20025;-65
2022/11/02 08:00:40;;;;;;;10.52;2.15;;;;;;;10.50;100.00;101839.97;4957930;28;20054;-65
2022/11/02 08:03:07;;;;;;;7.88;1.60;;;;;;;10.50;100.00;101827.91;4954098;28;20027;-64
2022/11/02 08:05:36;;;;;;;11.25;1.77;;;;;;;10.51;100.00;101837.44;4959611;28;20030;-65
2022/11/02 08:08:10;;;;;;;9.10;1.98;;;;;;;10.52;100.00;101834.03;4965666;28;20031;-66
2022/11/02 08:10:35;;;;;;;10.43;1.65;;;;;;;10.59;100.00;101834.34;4963957;28;20030;-66
2022/11/02 08:13:01;;;;;;;6.53;1.23;;;;;;;10.62;100.00;101842.25;4970847;28;20379;-66
2022/11/02 08:15:27;;;;;;;7.45;1.67;;;;;;;10.66;100.00;101844.19;4970300;28;20057;-66
2022/11/02 08:18:00;;;;;;;9.38;1.75;;;;;;;10.73;100.00;101841.06;4985309;28;20078;-67
2022/11/02 08:20:26;;;;;;;12.05;2.45;;;;;;;10.78;100.00;101842.19;4973062;28;20027;-66
2022/11/02 08:22:51;;;;;;;8.90;1.52;;;;;;;10.84;100.00;101845.88;4975175;28;20543;-66
2022/11/02 08:25:16;;;;;;;10.35;2.22;;;;;;;10.92;100.00;101852.28;4962428;28;20027;-66
2022/11/02 08:27:41;;;;;;;8.80;2.03;;;;;;;11.01;100.00;101852.72;4956252;28;20408;-66
2022/11/02 08:30:07;;;;;;;8.98;1.50;;;;;;;11.04;100.00;101855.47;4951694;28;20022;-66
2022/11/02 08:32:33;;;;;;;17.05;2.60;;;;;;;11.11;100.00;101858.34;4950405;28;20027;-66
2022/11/02 08:34:58;;;;;;;7.13;2.33;;;;;;;11.22;100.00;101864.94;4954962;28;20027;-66
2022/11/02 08:37:23;;;;;;;7.72;1.60;;;;;;;11.41;100.00;101864.06;4968817;28;20034;-67
2022/11/02 08:39:48;;;;;;;7.15;1.63;;;;;;;11.71;98.41;101867.06;4976680;28;20022;-66
2022/11/02 08:42:14;;;;;;;6.93;1.98;;;;;;;11.95;97.70;101866.31;4960784;28;20019;-66
2022/11/02 08:44:39;;;;;;;6.97;1.88;;;;;;;12.01;96.88;101862.31;4951305;28;20043;-66
2022/11/02 08:47:05;;;;;;;5.97;1.48;;;;;;;12.06;94.79;101870.28;4964116;28;20026;-66
2022/11/02 08:49:30;;;;;;;9.50;1.90;;;;;;;12.03;94.35;101875.34;4958526;28;20054;-66
2022/11/02 08:51:55;;;;;;;9.77;2.25;;;;;;;11.93;94.24;101875.75;4963590;28;20035;-66
2022/11/02 08:54:20;;;;;;;8.52;2.00;;;;;;;11.82;94.96;101886.56;4956722;28;20122;-66
2022/11/02 08:56:46;;;;;;;9.25;1.95;;;;;;;11.70;94.45;101871.34;4956389;28;20530;-66
2022/11/02 08:59:11;;;;;;;12.77;2.25;;;;;;;11.62;92.85;101888.31;4960112;28;20027;-66
2022/11/02 09:01:37;;;;;;;8.75;1.98;;;;;;;11.63;94.02;101880.59;4953134;28;20499;-66
2022/11/02 09:04:03;;;;;;;8.05;2.08;;;;;;;11.62;94.73;101888.31;4949880;28;20023;-66
2022/11/02 09:06:29;;;;;;;8.50;1.83;;;;;;;11.58;95.01;101891.59;4967897;28;20050;-66
2022/11/02 09:08:54;;;;;;;9.60;2.30;;;;;;;11.57;95.42;101882.91;4966944;28;20027;-66
2022/11/02 09:11:19;;;;;;;7.55;2.20;;;;;;;11.58;96.25;101896.78;4962736;28;20022;-66
2022/11/02 09:13:44;;;;;;;9.57;1.92;;;;;;;11.57;95.26;101894.97;4969220;28;20471;-66
2022/11/02 09:16:10;;;;;;;8.73;1.65;;;;;;;11.57;95.07;101894.97;4957390;28;20022;-66
2022/11/02 09:18:36;;;;;;;10.85;2.00;;;;;;;11.59;95.42;101888.16;4971299;28;20037;-66
2022/11/02 09:21:03;;;;;;;8.10;2.00;;;;;;;11.61;94.48;101889.13;4967090;28;20022;-66
2022/11/02 09:23:29;;;;;;;9.55;1.85;;;;;;;11.64;94.50;101902.22;4952942;28;20509;-67
2022/11/02 09:25:54;;;;;;;9.55;1.70;;;;;;;11.68;94.69;101898.06;4953136;28;20105;-66
2022/11/02 09:28:19;;;;;;;7.00;1.90;;;;;;;11.69;94.31;101905.94;4971133;28;20023;-66
2022/11/02 09:30:45;;;;;;;9.60;1.80;;;;;;;11.68;94.79;101893.75;4961800;28;20474;-66
2022/11/02 09:33:12;;;;;;;9.60;2.00;;;;;;;11.64;94.62;101903.13;4953965;28;20031;-66
2022/11/02 09:35:39;;;;;;;9.77;1.90;;;;;;;11.67;95.55;101907.56;4961682;28;20498;-66
2022/11/02 09:38:05;;;;;;;9.15;2.13;;;;;;;11.70;95.90;101902.50;4952768;28;20034;-66
2022/11/02 09:40:39;;;;;;;11.07;1.85;;;;;;;11.71;95.95;101906.88;4961336;28;20034;-66
2022/11/02 09:43:32;;;;;;;12.77;2.88;;;;;;;11.71;95.36;101913.81;4951325;28;20034;-66
2022/11/02 09:46:07;;;;;;;8.50;2.38;;;;;;;11.68;96.56;101914.53;4964478;28;20125;-66
2022/11/02 09:48:49;;;;;;;10.73;2.85;;;;;;;11.71;97.20;101904.28;4967942;28;20509;-65
2022/11/02 09:51:19;;;;;;;4.85;1.83;;;;;;;11.82;97.43;101914.28;4956708;28;20114;-66
2022/11/02 09:54:25;;;;;;;9.63;2.40;;;;;;;11.93;94.95;101912.13;4963886;28;20081;-66
2022/11/02 09:56:56;;;;;;;11.48;2.38;;;;;;;12.05;94.40;101922.19;4960556;28;20073;-66
2022/11/02 09:59:24;;;;;;;11.15;3.38;;;;;;;12.13;94.94;101923.41;4953717;28;20110;-66
2022/11/02 10:02:21;;;;;;;12.88;2.30;;;;;;;12.19;93.42;101923.69;4954382;28;20031;-66
2022/11/02 10:05:13;;;;;;;11.18;2.38;;;;;;;12.22;92.18;101918.63;4954156;28;20648;-66
2022/11/02 10:08:21;;;;;;;9.05;2.05;;;;;;;12.25;92.52;101921.34;4953236;28;20395;-66
2022/11/02 10:11:23;;;;;;;9.18;2.50;;;;;;;12.29;92.89;101924.06;4950797;28;20168;-66
2022/11/02 10:13:56;;;;;;;7.72;2.20;;;;;;;12.34;92.23;101939.03;4960841;28;20037;-66
2022/11/02 10:16:30;;;;;;;12.45;2.97;;;;;;;12.38;90.37;101941.78;4963099;28;20070;-65
2022/11/02 10:18:56;;;;;;;12.23;2.50;;;;;;;12.40;90.53;101943.59;4949133;28;20027;-66
2022/11/02 10:21:37;;;;;;;12.55;2.67;;;;;;;12.40;89.71;101942.72;4957674;28;20023;-65
2022/11/02 10:24:09;;;;;;;;;;;;;;;12.44;89.85;101949.81;4958545;28;20042;-65
2022/11/02 10:26:36;;;;;;;7.70;2.00;;;;;;;12.44;89.53;101950.72;4970438;28;19988;-66
2022/11/02 10:29:22;;;;;;;7.18;1.63;;;;;;;12.47;88.36;101949.94;4961765;28;20361;-65
2022/11/02 10:31:47;;;;;;;8.80;2.00;;;;;;;12.51;87.23;101951.84;4971347;28;20027;-65
2022/11/02 10:34:25;;;;;;;10.10;2.05;;;;;;;12.53;86.11;101945.00;4958529;28;20520;-65
2022/11/02 10:36:59;;;;;;;7.30;2.05;;;;;;;12.56;85.31;101949.44;4975202;28;20450;-66
2022/11/02 10:39:49;;;;;;;8.05;1.95;;;;;;;12.61;85.76;101947.91;4959786;28;20027;-66
2022/11/02 10:42:33;;;;;;;10.23;1.90;;;;;;;12.58;83.79;101950.41;4958492;28;20269;-66
2022/11/02 10:45:16;;;;;;;8.93;2.00;;;;;;;12.54;84.78;101957.19;4954368;28;20428;-65
2022/11/02 10:47:56;;;;;;;9.18;2.67;;;;;;;12.56;84.72;101955.53;4962217;28;20037;-66
2022/11/02 10:50:32;;;;;;;13.18;1.73;;;;;;;12.59;82.58;101954.78;4956202;28;20160;-66
2022/11/02 10:53:01;;;;;;;9.23;1.70;;;;;;;12.61;81.83;101960.91;4972598;28;20117;-65
2022/11/02 10:55:42;;;;;;;7.65;1.85;;;;;;;12.67;83.54;101968.97;4974920;28;20463;-65
2022/11/02 10:58:16;;;;;;;10.43;2.10;;;;;;;12.72;83.69;101967.47;4989796;28;20088;-66
2022/11/02 11:00:42;;;;;;;8.75;2.20;;;;;;;12.80;84.41;101964.28;4965270;28;20022;-66
2022/11/02 11:03:15;;;;;;;7.97;2.00;;;;;;;12.87;83.63;101966.31;4955504;28;20030;-66
2022/11/02 11:05:49;;;;;;;8.85;1.77;;;;;;;12.89;78.34;101968.97;4964988;28;20025;-65
2022/11/02 11:08:52;;;;;;;12.25;2.20;;;;;;;13.00;78.63;101979.81;4958590;28;20027;-66
2022/11/02 11:11:21;;;;;;;8.40;1.95;;;;;;;13.05;78.27;101970.47;4978981;28;20597;-65
2022/11/02 11:14:16;;;;;;;14.07;2.17;;;;;;;13.16;77.48;101971.81;4970968;28;20122;-66
2022/11/02 11:16:45;;;;;;;7.88;2.25;;;;;;;13.26;77.37;101975.63;4957129;28;20038;-66
2022/11/02 11:19:21;;;;;;;7.57;1.70;;;;;;;13.33;76.02;101971.53;4976949;28;20101;-66
2022/11/02 11:21:48;;;;;;;10.10;3.00;;;;;;;13.41;74.60;101970.16;4957613;28;20022;-66
2022/11/02 11:24:27;;;;;;;5.45;1.50;;;;;;;13.51;74.28;101975.72;4959030;28;20529;-66
2022/11/02 11:27:22;;;;;;;8.45;1.80;;;;;;;13.62;75.56;101973.53;4972487;28;20031;-65
2022/11/02 11:29:55;;;;;;;9.85;1.60;;;;;;;13.74;74.92;101973.09;4966664;28;20046;-66
2022/11/02 11:32:23;;;;;;;8.85;1.80;;;;;;;13.85;73.94;101961.34;4960435;28;20111;-66
2022/11/02 11:35:04;;;;;;;10.35;2.20;;;;;;;13.96;72.56;101969.56;4968433;28;20422;-66
2022/11/02 11:37:30;;;;;;;7.93;1.43;;;;;;;14.03;70.63;101960.25;4961036;28;20042;-66
2022/11/02 11:39:59;;;;;;;5.68;1.33;;;;;;;14.16;71.57;101956.34;4970829;28;20030;-66
2022/11/02 11:42:30;;;;;;;6.13;1.60;;;;;;;14.16;68.84;101957.25;4972710;28;20038;-66
2022/11/02 11:44:59;;;;;;;8.98;1.95;;;;;;;14.20;69.97;101941.69;4973566;28;20046;-65
2022/11/02 11:47:36;;;;;;;5.75;1.33;;;;;;;14.32;70.40;101936.91;4961569;28;20030;-66